APL New Jersey — A8NM6 — position and weather

sailwx.info

Track history (hours):
 
Tides and Currents Weather Stations Pressure Air Temp Water Temp Dewpoint Dewpoint Depression Visibility Wind Speed Wind Dir Waves Ship Positions

APL New Jersey

Last reported at 2014-Oct-25 00:19 UTC. Time now 2014-Oct-25 13:31 UTC.
Position N 01°16' E 104°09'.

Length 293 m; draft 12.9 m.

Type: Cargo ship. MMSI: 636013522.

Date/timePositionNaut miles runAvg speedWind from/ knotsBaromVisibWave heightAir tempDewpointWater temp
2014-Oct-25 00:19N 01°16' E 104°09'1417.1
2014-Oct-24 23:32N 01°14' E 103°56'6 6.3
2014-Oct-24 22:31N 01°16' E 103°50'0 0.0
2014-Oct-24 21:31N 01°16' E 103°50'0 0.1
2014-Oct-24 20:31N 01°16' E 103°50'0 0.1
2014-Oct-24 19:31N 01°16' E 103°50'0 0.0
2014-Oct-24 18:31N 01°16' E 103°50'0 0.0
2014-Oct-24 17:31N 01°16' E 103°50'0 0.0
2014-Oct-24 16:31N 01°16' E 103°50'0 0.0
2014-Oct-24 15:31N 01°16' E 103°50'0 0.1
2014-Oct-24 14:31N 01°16' E 103°50'0 0.0
2014-Oct-24 13:31N 01°16' E 103°50'0 0.0
2014-Oct-24 12:31N 01°16' E 103°50'0 0.1
2014-Oct-24 11:31N 01°16' E 103°50'0 0.1
2014-Oct-24 10:31N 01°16' E 103°50'0 0.1
2014-Oct-24 09:31N 01°16' E 103°50'0 0.1
2014-Oct-24 08:31N 01°16' E 103°50'0 0.0
2014-Oct-24 07:31N 01°16' E 103°50'0 0.0
2014-Oct-24 06:29N 01°16' E 103°50'0 0.1
2014-Oct-24 05:26N 01°16' E 103°50'0 0.0
2014-Oct-24 04:29N 01°16' E 103°50'0 0.0
2014-Oct-24 03:29N 01°16' E 103°50'0 0.1
2014-Oct-24 02:29N 01°16' E 103°50'0 0.0
2014-Oct-24 01:29N 01°16' E 103°50'0 0.0
2014-Oct-24 00:23N 01°16' E 103°50'0 0.1
2014-Oct-23 23:29N 01°16' E 103°50'0 0.0
2014-Oct-23 22:29N 01°16' E 103°50'0 0.1
2014-Oct-23 21:29N 01°16' E 103°50'0 0.0
2014-Oct-23 20:29N 01°16' E 103°50'0 0.0
2014-Oct-23 19:29N 01°16' E 103°50'0 0.0
2014-Oct-23 18:29N 01°16' E 103°50'0 0.1
2014-Oct-23 17:23N 01°16' E 103°50'0 0.1
2014-Oct-23 16:29N 01°16' E 103°50'0 0.0
2014-Oct-23 15:29N 01°16' E 103°50'0 0.0
2014-Oct-23 14:32N 01°16' E 103°50'0 0.0
2014-Oct-23 13:05N 01°16' E 103°50'0 0.0
2014-Oct-23 12:29N 01°16' E 103°50'0 0.1
2014-Oct-23 11:29N 01°16' E 103°50'1 1.0
2014-Oct-23 10:34N 01°16' E 103°51'4 3.8
2014-Oct-23 09:33N 01°14' E 103°54'1514.7
2014-Oct-23 08:32N 01°17' E 104°09'  
2014-Oct-20 06:33N 21°41' E 119°26'2120.8
2014-Oct-20 05:33N 21°59' E 119°38'2121.1
2014-Oct-20 04:32N 22°16' E 119°51'2020.1
2014-Oct-20 03:33N 22°31' E 120°05'1312.9
2014-Oct-20 02:33N 22°33' E 120°19'0 0.4
2014-Oct-20 01:28N 22°34' E 120°19'0 0.0
2014-Oct-20 00:22N 22°34' E 120°19'0 0.0
2014-Oct-19 16:19N 22°34' E 120°19'0 0.0
2014-Oct-19 13:04N 22°34' E 120°19'0 0.0
2014-Oct-19 12:28N 22°34' E 120°19'0 0.0
2014-Oct-19 11:28N 22°34' E 120°19'0 0.0
2014-Oct-19 10:28N 22°34' E 120°19'0 0.0
2014-Oct-19 09:28N 22°34' E 120°19'0 0.5
2014-Oct-19 08:33N 22°33' E 120°19'6 6.2
2014-Oct-19 07:33N 22°32' E 120°13'9 8.9
2014-Oct-19 06:33N 22°36' E 120°04'1414.1
2014-Oct-19 05:33N 22°48' E 119°55'  
2014-Oct-16 09:33N 35°16' E 139°46'1111.0
2014-Oct-16 08:33N 35°27' E 139°41'1 0.5
2014-Oct-16 07:28N 35°26' E 139°41'0 0.0
2014-Oct-16 06:31N 35°26' E 139°41'0 0.0
2014-Oct-16 05:31N 35°26' E 139°41'0 0.0
2014-Oct-16 04:31N 35°26' E 139°41'0 0.0
2014-Oct-16 03:31N 35°26' E 139°41'0 0.0
2014-Oct-16 02:31N 35°26' E 139°41'0 0.0
2014-Oct-16 01:31N 35°26' E 139°41'21 2.9
2014-Oct-15 18:23N 35°06' E 139°45'26 8.6
2014-Oct-15 15:22N 34°58' E 140°15'  
Track history (hours):
 
Tides and Currents Weather Stations Pressure Air Temp Water Temp Dewpoint Dewpoint Depression Visibility Wind Speed Wind Dir Waves Ship Positions

APL New Jersey

Last reported at 2014-Oct-25 00:19 UTC. Time now 2014-Oct-25 13:31 UTC.
Position N 01°16' E 104°09'.

Length 293 m; draft 12.9 m.

Type: Cargo ship. MMSI: 636013522.

Date/timePositionNaut miles runAvg speedWind from/ knotsBaromVisibWave heightAir tempDewpointWater temp
2014-Oct-25 00:19N 01°16' E 104°09'1417.1
2014-Oct-24 23:32N 01°14' E 103°56'6 6.3
2014-Oct-24 22:31N 01°16' E 103°50'0 0.0
2014-Oct-24 21:31N 01°16' E 103°50'0 0.1
2014-Oct-24 20:31N 01°16' E 103°50'0 0.1
2014-Oct-24 19:31N 01°16' E 103°50'0 0.0
2014-Oct-24 18:31N 01°16' E 103°50'0 0.0
2014-Oct-24 17:31N 01°16' E 103°50'0 0.0
2014-Oct-24 16:31N 01°16' E 103°50'0 0.0
2014-Oct-24 15:31N 01°16' E 103°50'0 0.1
2014-Oct-24 14:31N 01°16' E 103°50'0 0.0
2014-Oct-24 13:31N 01°16' E 103°50'0 0.0
2014-Oct-24 12:31N 01°16' E 103°50'0 0.1
2014-Oct-24 11:31N 01°16' E 103°50'0 0.1
2014-Oct-24 10:31N 01°16' E 103°50'0 0.1
2014-Oct-24 09:31N 01°16' E 103°50'0 0.1
2014-Oct-24 08:31N 01°16' E 103°50'0 0.0
2014-Oct-24 07:31N 01°16' E 103°50'0 0.0
2014-Oct-24 06:29N 01°16' E 103°50'0 0.1
2014-Oct-24 05:26N 01°16' E 103°50'0 0.0
2014-Oct-24 04:29N 01°16' E 103°50'0 0.0
2014-Oct-24 03:29N 01°16' E 103°50'0 0.1
2014-Oct-24 02:29N 01°16' E 103°50'0 0.0
2014-Oct-24 01:29N 01°16' E 103°50'0 0.0
2014-Oct-24 00:23N 01°16' E 103°50'0 0.1
2014-Oct-23 23:29N 01°16' E 103°50'0 0.0
2014-Oct-23 22:29N 01°16' E 103°50'0 0.1
2014-Oct-23 21:29N 01°16' E 103°50'0 0.0
2014-Oct-23 20:29N 01°16' E 103°50'0 0.0
2014-Oct-23 19:29N 01°16' E 103°50'0 0.0
2014-Oct-23 18:29N 01°16' E 103°50'0 0.1
2014-Oct-23 17:23N 01°16' E 103°50'0 0.1
2014-Oct-23 16:29N 01°16' E 103°50'0 0.0
2014-Oct-23 15:29N 01°16' E 103°50'0 0.0
2014-Oct-23 14:32N 01°16' E 103°50'0 0.0
2014-Oct-23 13:05N 01°16' E 103°50'0 0.0
2014-Oct-23 12:29N 01°16' E 103°50'0 0.1
2014-Oct-23 11:29N 01°16' E 103°50'1 1.0
2014-Oct-23 10:34N 01°16' E 103°51'4 3.8
2014-Oct-23 09:33N 01°14' E 103°54'1514.7
2014-Oct-23 08:32N 01°17' E 104°09'  
2014-Oct-20 06:33N 21°41' E 119°26'2120.8
2014-Oct-20 05:33N 21°59' E 119°38'2121.1
2014-Oct-20 04:32N 22°16' E 119°51'2020.1
2014-Oct-20 03:33N 22°31' E 120°05'1312.9
2014-Oct-20 02:33N 22°33' E 120°19'0 0.4
2014-Oct-20 01:28N 22°34' E 120°19'0 0.0
2014-Oct-20 00:22N 22°34' E 120°19'0 0.0
2014-Oct-19 16:19N 22°34' E 120°19'0 0.0
2014-Oct-19 13:04N 22°34' E 120°19'0 0.0
2014-Oct-19 12:28N 22°34' E 120°19'0 0.0
2014-Oct-19 11:28N 22°34' E 120°19'0 0.0
2014-Oct-19 10:28N 22°34' E 120°19'0 0.0
2014-Oct-19 09:28N 22°34' E 120°19'0 0.5
2014-Oct-19 08:33N 22°33' E 120°19'6 6.2
2014-Oct-19 07:33N 22°32' E 120°13'9 8.9
2014-Oct-19 06:33N 22°36' E 120°04'1414.1
2014-Oct-19 05:33N 22°48' E 119°55'  
2014-Oct-16 09:33N 35°16' E 139°46'1111.0
2014-Oct-16 08:33N 35°27' E 139°41'1 0.5
2014-Oct-16 07:28N 35°26' E 139°41'0 0.0
2014-Oct-16 06:31N 35°26' E 139°41'0 0.0
2014-Oct-16 05:31N 35°26' E 139°41'0 0.0
2014-Oct-16 04:31N 35°26' E 139°41'0 0.0
2014-Oct-16 03:31N 35°26' E 139°41'0 0.0
2014-Oct-16 02:31N 35°26' E 139°41'0 0.0
2014-Oct-16 01:31N 35°26' E 139°41'21 2.9
2014-Oct-15 18:23N 35°06' E 139°45'26 8.6
2014-Oct-15 15:22N 34°58' E 140°15'  

Dump ship's entire track history